sensor_id;sensor_type;location;lat;lon;timestamp;P1;durP1;ratioP1;P2;durP2;ratioP2
21036;SDS011;10677;50.942;4.028;2023-01-15T00:01:43;15.30;;;2.38;;
21036;SDS011;10677;50.942;4.028;2023-01-15T00:04:12;7.35;;;1.85;;
21036;SDS011;10677;50.942;4.028;2023-01-15T00:06:39;12.65;;;1.60;;
21036;SDS011;10677;50.942;4.028;2023-01-15T00:09:06;12.18;;;1.92;;
21036;SDS011;10677;50.942;4.028;2023-01-15T00:11:36;9.43;;;1.50;;
21036;SDS011;10677;50.942;4.028;2023-01-15T00:14:02;15.18;;;1.92;;
21036;SDS011;10677;50.942;4.028;2023-01-15T00:16:28;10.13;;;1.63;;
21036;SDS011;10677;50.942;4.028;2023-01-15T00:18:55;10.32;;;1.90;;
21036;SDS011;10677;50.942;4.028;2023-01-15T00:21:22;10.70;;;1.98;;
21036;SDS011;10677;50.942;4.028;2023-01-15T00:23:49;11.85;;;1.58;;
21036;SDS011;10677;50.942;4.028;2023-01-15T00:26:34;11.60;;;2.05;;
21036;SDS011;10677;50.942;4.028;2023-01-15T00:29:19;11.27;;;1.77;;
21036;SDS011;10677;50.942;4.028;2023-01-15T00:31:50;13.55;;;1.75;;
21036;SDS011;10677;50.942;4.028;2023-01-15T00:34:21;9.27;;;1.35;;
21036;SDS011;10677;50.942;4.028;2023-01-15T00:36:46;10.43;;;1.77;;
21036;SDS011;10677;50.942;4.028;2023-01-15T00:39:12;10.07;;;1.90;;
21036;SDS011;10677;50.942;4.028;2023-01-15T00:41:38;9.07;;;1.65;;
21036;SDS011;10677;50.942;4.028;2023-01-15T00:44:03;13.77;;;1.77;;
21036;SDS011;10677;50.942;4.028;2023-01-15T00:46:29;14.30;;;2.30;;
21036;SDS011;10677;50.942;4.028;2023-01-15T00:48:55;8.80;;;1.85;;
21036;SDS011;10677;50.942;4.028;2023-01-15T00:51:20;14.98;;;2.10;;
21036;SDS011;10677;50.942;4.028;2023-01-15T00:53:46;11.13;;;1.67;;
21036;SDS011;10677;50.942;4.028;2023-01-15T00:56:11;11.18;;;2.08;;
21036;SDS011;10677;50.942;4.028;2023-01-15T00:58:37;11.60;;;1.95;;
21036;SDS011;10677;50.942;4.028;2023-01-15T01:01:03;11.70;;;1.90;;
21036;SDS011;10677;50.942;4.028;2023-01-15T01:03:28;9.30;;;1.75;;
21036;SDS011;10677;50.942;4.028;2023-01-15T01:05:58;11.60;;;1.95;;
21036;SDS011;10677;50.942;4.028;2023-01-15T01:08:27;15.70;;;1.88;;
21036;SDS011;10677;50.942;4.028;2023-01-15T01:11:27;14.30;;;1.70;;
21036;SDS011;10677;50.942;4.028;2023-01-15T01:13:48;9.25;;;1.58;;
21036;SDS011;10677;50.942;4.028;2023-01-15T01:16:36;9.35;;;1.50;;
21036;SDS011;10677;50.942;4.028;2023-01-15T01:19:03;11.95;;;1.52;;
21036;SDS011;10677;50.942;4.028;2023-01-15T01:21:33;19.83;;;1.88;;
21036;SDS011;10677;50.942;4.028;2023-01-15T01:23:59;11.95;;;1.23;;
21036;SDS011;10677;50.942;4.028;2023-01-15T01:26:26;8.55;;;1.70;;
21036;SDS011;10677;50.942;4.028;2023-01-15T01:28:53;11.48;;;1.50;;
21036;SDS011;10677;50.942;4.028;2023-01-15T01:31:19;12.27;;;1.50;;
21036;SDS011;10677;50.942;4.028;2023-01-15T01:33:49;9.15;;;1.00;;
21036;SDS011;10677;50.942;4.028;2023-01-15T01:36:15;7.25;;;1.60;;
21036;SDS011;10677;50.942;4.028;2023-01-15T01:38:42;8.88;;;2.20;;
21036;SDS011;10677;50.942;4.028;2023-01-15T01:41:07;8.77;;;1.20;;
21036;SDS011;10677;50.942;4.028;2023-01-15T01:43:50;11.40;;;1.80;;
21036;SDS011;10677;50.942;4.028;2023-01-15T01:46:21;9.10;;;1.48;;
21036;SDS011;10677;50.942;4.028;2023-01-15T01:48:47;13.63;;;1.40;;
21036;SDS011;10677;50.942;4.028;2023-01-15T01:51:16;11.20;;;1.92;;
21036;SDS011;10677;50.942;4.028;2023-01-15T01:53:43;9.85;;;1.90;;
21036;SDS011;10677;50.942;4.028;2023-01-15T01:56:09;11.52;;;1.75;;
21036;SDS011;10677;50.942;4.028;2023-01-15T01:58:41;14.95;;;2.08;;
21036;SDS011;10677;50.942;4.028;2023-01-15T02:01:09;11.15;;;2.13;;
21036;SDS011;10677;50.942;4.028;2023-01-15T02:03:36;10.70;;;1.75;;
21036;SDS011;10677;50.942;4.028;2023-01-15T02:06:04;10.00;;;1.75;;
21036;SDS011;10677;50.942;4.028;2023-01-15T02:08:32;10.95;;;1.77;;
21036;SDS011;10677;50.942;4.028;2023-01-15T02:10:59;9.68;;;1.52;;
21036;SDS011;10677;50.942;4.028;2023-01-15T02:24:04;12.75;;;1.77;;
21036;SDS011;10677;50.942;4.028;2023-01-15T02:29:09;14.30;;;1.77;;
21036;SDS011;10677;50.942;4.028;2023-01-15T02:31:42;8.88;;;1.60;;
21036;SDS011;10677;50.942;4.028;2023-01-15T02:34:15;10.30;;;1.70;;
21036;SDS011;10677;50.942;4.028;2023-01-15T02:37:00;14.48;;;2.15;;
21036;SDS011;10677;50.942;4.028;2023-01-15T02:39:30;15.55;;;1.58;;
21036;SDS011;10677;50.942;4.028;2023-01-15T02:41:59;11.43;;;1.95;;
21036;SDS011;10677;50.942;4.028;2023-01-15T02:44:28;13.70;;;2.17;;
21036;SDS011;10677;50.942;4.028;2023-01-15T02:46:56;17.58;;;2.15;;
21036;SDS011;10677;50.942;4.028;2023-01-15T02:49:23;10.43;;;2.08;;
21036;SDS011;10677;50.942;4.028;2023-01-15T02:52:09;16.02;;;1.70;;
21036;SDS011;10677;50.942;4.028;2023-01-15T02:54:40;7.05;;;1.38;;
21036;SDS011;10677;50.942;4.028;2023-01-15T02:57:10;13.18;;;1.90;;
21036;SDS011;10677;50.942;4.028;2023-01-15T02:59:42;11.63;;;1.48;;
21036;SDS011;10677;50.942;4.028;2023-01-15T03:02:19;9.80;;;1.83;;
21036;SDS011;10677;50.942;4.028;2023-01-15T03:10:11;10.82;;;1.65;;
21036;SDS011;10677;50.942;4.028;2023-01-15T03:12:44;8.27;;;1.40;;
21036;SDS011;10677;50.942;4.028;2023-01-15T03:15:37;10.98;;;2.17;;
21036;SDS011;10677;50.942;4.028;2023-01-15T03:18:46;10.52;;;2.00;;
21036;SDS011;10677;50.942;4.028;2023-01-15T03:21:27;9.60;;;1.25;;
21036;SDS011;10677;50.942;4.028;2023-01-15T03:23:59;9.00;;;1.52;;
21036;SDS011;10677;50.942;4.028;2023-01-15T03:26:28;9.23;;;1.45;;
21036;SDS011;10677;50.942;4.028;2023-01-15T03:28:53;11.65;;;1.33;;
21036;SDS011;10677;50.942;4.028;2023-01-15T03:31:20;11.35;;;1.80;;
21036;SDS011;10677;50.942;4.028;2023-01-15T03:33:46;16.10;;;1.70;;
21036;SDS011;10677;50.942;4.028;2023-01-15T03:36:12;9.23;;;1.50;;
21036;SDS011;10677;50.942;4.028;2023-01-15T03:38:38;11.38;;;1.63;;
21036;SDS011;10677;50.942;4.028;2023-01-15T03:41:14;11.90;;;1.48;;
21036;SDS011;10677;50.942;4.028;2023-01-15T03:51:38;11.38;;;1.35;;
21036;SDS011;10677;50.942;4.028;2023-01-15T03:54:16;14.75;;;2.40;;
21036;SDS011;10677;50.942;4.028;2023-01-15T03:57:05;12.35;;;1.45;;
21036;SDS011;10677;50.942;4.028;2023-01-15T03:59:39;10.07;;;2.42;;
21036;SDS011;10677;50.942;4.028;2023-01-15T04:02:13;11.70;;;2.00;;
21036;SDS011;10677;50.942;4.028;2023-01-15T04:04:41;7.18;;;1.30;;
21036;SDS011;10677;50.942;4.028;2023-01-15T04:07:09;7.68;;;1.45;;
21036;SDS011;10677;50.942;4.028;2023-01-15T04:09:36;11.43;;;1.52;;
21036;SDS011;10677;50.942;4.028;2023-01-15T04:12:03;10.05;;;1.65;;
21036;SDS011;10677;50.942;4.028;2023-01-15T04:14:30;10.75;;;1.38;;
21036;SDS011;10677;50.942;4.028;2023-01-15T04:16:56;8.38;;;1.15;;
21036;SDS011;10677;50.942;4.028;2023-01-15T04:19:21;13.15;;;1.70;;
21036;SDS011;10677;50.942;4.028;2023-01-15T04:21:47;11.65;;;1.40;;
21036;SDS011;10677;50.942;4.028;2023-01-15T04:24:13;9.68;;;1.45;;
21036;SDS011;10677;50.942;4.028;2023-01-15T04:26:38;8.55;;;1.25;;
21036;SDS011;10677;50.942;4.028;2023-01-15T04:29:04;10.23;;;1.60;;
21036;SDS011;10677;50.942;4.028;2023-01-15T04:31:30;9.65;;;1.60;;
21036;SDS011;10677;50.942;4.028;2023-01-15T04:33:57;9.07;;;1.20;;
21036;SDS011;10677;50.942;4.028;2023-01-15T04:36:23;9.52;;;1.60;;
21036;SDS011;10677;50.942;4.028;2023-01-15T04:38:49;9.63;;;1.45;;
21036;SDS011;10677;50.942;4.028;2023-01-15T04:41:15;9.90;;;1.30;;
21036;SDS011;10677;50.942;4.028;2023-01-15T04:44:00;10.13;;;1.65;;
21036;SDS011;10677;50.942;4.028;2023-01-15T04:46:44;13.82;;;1.30;;
21036;SDS011;10677;50.942;4.028;2023-01-15T04:49:15;8.93;;;1.75;;
21036;SDS011;10677;50.942;4.028;2023-01-15T04:51:42;11.40;;;1.42;;
21036;SDS011;10677;50.942;4.028;2023-01-15T04:54:09;7.70;;;1.13;;
21036;SDS011;10677;50.942;4.028;2023-01-15T04:56:37;7.72;;;1.00;;
21036;SDS011;10677;50.942;4.028;2023-01-15T04:59:08;7.70;;;1.48;;
21036;SDS011;10677;50.942;4.028;2023-01-15T05:01:34;6.13;;;1.70;;
21036;SDS011;10677;50.942;4.028;2023-01-15T05:04:00;8.45;;;1.23;;
21036;SDS011;10677;50.942;4.028;2023-01-15T05:06:27;7.18;;;1.05;;
21036;SDS011;10677;50.942;4.028;2023-01-15T05:08:53;7.35;;;1.00;;
21036;SDS011;10677;50.942;4.028;2023-01-15T05:11:19;7.60;;;0.93;;
21036;SDS011;10677;50.942;4.028;2023-01-15T05:13:45;5.13;;;1.02;;
21036;SDS011;10677;50.942;4.028;2023-01-15T05:21:41;7.15;;;0.90;;
21036;SDS011;10677;50.942;4.028;2023-01-15T05:24:09;9.20;;;0.93;;
21036;SDS011;10677;50.942;4.028;2023-01-15T05:26:40;8.45;;;1.40;;
21036;SDS011;10677;50.942;4.028;2023-01-15T05:29:06;5.30;;;0.93;;
21036;SDS011;10677;50.942;4.028;2023-01-15T05:31:32;9.50;;;1.10;;
21036;SDS011;10677;50.942;4.028;2023-01-15T05:33:58;8.40;;;1.30;;
21036;SDS011;10677;50.942;4.028;2023-01-15T05:36:24;8.15;;;1.83;;
21036;SDS011;10677;50.942;4.028;2023-01-15T05:38:52;7.47;;;0.82;;
21036;SDS011;10677;50.942;4.028;2023-01-15T05:41:19;3.65;;;0.70;;
21036;SDS011;10677;50.942;4.028;2023-01-15T05:44:05;5.70;;;0.85;;
21036;SDS011;10677;50.942;4.028;2023-01-15T05:46:33;6.00;;;0.70;;
21036;SDS011;10677;50.942;4.028;2023-01-15T05:49:00;4.40;;;0.95;;
21036;SDS011;10677;50.942;4.028;2023-01-15T05:51:30;3.97;;;0.50;;
21036;SDS011;10677;50.942;4.028;2023-01-15T05:53:56;2.17;;;0.60;;
21036;SDS011;10677;50.942;4.028;2023-01-15T05:56:22;3.70;;;0.63;;
21036;SDS011;10677;50.942;4.028;2023-01-15T05:58:48;7.95;;;1.45;;
21036;SDS011;10677;50.942;4.028;2023-01-15T06:01:14;4.55;;;0.80;;
21036;SDS011;10677;50.942;4.028;2023-01-15T06:03:40;7.13;;;0.82;;
21036;SDS011;10677;50.942;4.028;2023-01-15T06:06:06;7.18;;;1.17;;
21036;SDS011;10677;50.942;4.028;2023-01-15T06:08:36;5.47;;;0.85;;
21036;SDS011;10677;50.942;4.028;2023-01-15T06:11:02;14.48;;;1.77;;
21036;SDS011;10677;50.942;4.028;2023-01-15T06:13:27;6.60;;;1.25;;
21036;SDS011;10677;50.942;4.028;2023-01-15T06:15:53;9.68;;;0.98;;
21036;SDS011;10677;50.942;4.028;2023-01-15T06:18:19;6.35;;;0.80;;
21036;SDS011;10677;50.942;4.028;2023-01-15T06:20:47;6.03;;;0.82;;
21036;SDS011;10677;50.942;4.028;2023-01-15T06:23:13;9.77;;;1.15;;
21036;SDS011;10677;50.942;4.028;2023-01-15T06:25:41;8.15;;;1.52;;
21036;SDS011;10677;50.942;4.028;2023-01-15T06:28:06;6.60;;;1.20;;
21036;SDS011;10677;50.942;4.028;2023-01-15T06:30:33;6.85;;;0.70;;
21036;SDS011;10677;50.942;4.028;2023-01-15T06:32:59;8.50;;;1.10;;
21036;SDS011;10677;50.942;4.028;2023-01-15T06:35:25;4.40;;;0.80;;
21036;SDS011;10677;50.942;4.028;2023-01-15T06:37:51;5.03;;;0.90;;
21036;SDS011;10677;50.942;4.028;2023-01-15T06:40:17;3.03;;;0.60;;
21036;SDS011;10677;50.942;4.028;2023-01-15T06:42:43;6.53;;;1.13;;
21036;SDS011;10677;50.942;4.028;2023-01-15T06:45:28;8.40;;;1.38;;
21036;SDS011;10677;50.942;4.028;2023-01-15T06:48:19;6.20;;;1.40;;
21036;SDS011;10677;50.942;4.028;2023-01-15T06:50:45;6.72;;;1.40;;
21036;SDS011;10677;50.942;4.028;2023-01-15T06:53:11;8.95;;;1.67;;
21036;SDS011;10677;50.942;4.028;2023-01-15T06:55:37;8.20;;;1.35;;
21036;SDS011;10677;50.942;4.028;2023-01-15T06:58:03;6.18;;;1.25;;
21036;SDS011;10677;50.942;4.028;2023-01-15T07:00:29;6.22;;;0.93;;
21036;SDS011;10677;50.942;4.028;2023-01-15T07:02:54;8.52;;;1.05;;
21036;SDS011;10677;50.942;4.028;2023-01-15T07:05:23;7.47;;;1.15;;
21036;SDS011;10677;50.942;4.028;2023-01-15T07:07:48;5.95;;;1.10;;
21036;SDS011;10677;50.942;4.028;2023-01-15T07:10:14;8.02;;;1.13;;
21036;SDS011;10677;50.942;4.028;2023-01-15T07:12:40;8.68;;;1.30;;
21036;SDS011;10677;50.942;4.028;2023-01-15T07:15:06;7.68;;;1.50;;
21036;SDS011;10677;50.942;4.028;2023-01-15T07:17:32;7.70;;;1.60;;
21036;SDS011;10677;50.942;4.028;2023-01-15T07:19:57;8.82;;;1.60;;
21036;SDS011;10677;50.942;4.028;2023-01-15T07:22:23;12.30;;;1.75;;
21036;SDS011;10677;50.942;4.028;2023-01-15T07:24:49;10.48;;;2.13;;
21036;SDS011;10677;50.942;4.028;2023-01-15T07:27:14;7.45;;;1.20;;
21036;SDS011;10677;50.942;4.028;2023-01-15T07:29:40;12.25;;;1.50;;
21036;SDS011;10677;50.942;4.028;2023-01-15T07:32:06;6.63;;;1.20;;
21036;SDS011;10677;50.942;4.028;2023-01-15T07:34:31;6.53;;;1.55;;
21036;SDS011;10677;50.942;4.028;2023-01-15T07:36:57;6.93;;;1.20;;
21036;SDS011;10677;50.942;4.028;2023-01-15T07:39:23;7.00;;;1.27;;
21036;SDS011;10677;50.942;4.028;2023-01-15T07:41:48;6.45;;;1.33;;
21036;SDS011;10677;50.942;4.028;2023-01-15T07:44:32;11.90;;;1.35;;
21036;SDS011;10677;50.942;4.028;2023-01-15T07:50:27;7.07;;;1.58;;
21036;SDS011;10677;50.942;4.028;2023-01-15T07:52:52;11.68;;;1.42;;
21036;SDS011;10677;50.942;4.028;2023-01-15T07:55:18;7.07;;;0.90;;
21036;SDS011;10677;50.942;4.028;2023-01-15T07:57:44;9.02;;;1.92;;
21036;SDS011;10677;50.942;4.028;2023-01-15T08:00:11;9.55;;;2.10;;
21036;SDS011;10677;50.942;4.028;2023-01-15T08:02:39;6.57;;;1.13;;
21036;SDS011;10677;50.942;4.028;2023-01-15T08:05:06;14.02;;;1.42;;
21036;SDS011;10677;50.942;4.028;2023-01-15T08:07:36;11.00;;;1.42;;
21036;SDS011;10677;50.942;4.028;2023-01-15T08:10:02;11.23;;;1.67;;
21036;SDS011;10677;50.942;4.028;2023-01-15T08:12:28;10.82;;;1.70;;
21036;SDS011;10677;50.942;4.028;2023-01-15T08:15:12;12.00;;;1.58;;
21036;SDS011;10677;50.942;4.028;2023-01-15T08:17:42;11.57;;;1.67;;
21036;SDS011;10677;50.942;4.028;2023-01-15T08:20:14;9.88;;;1.40;;
21036;SDS011;10677;50.942;4.028;2023-01-15T08:22:45;6.47;;;1.17;;
21036;SDS011;10677;50.942;4.028;2023-01-15T08:25:12;8.38;;;1.33;;
21036;SDS011;10677;50.942;4.028;2023-01-15T08:27:39;11.13;;;1.65;;
21036;SDS011;10677;50.942;4.028;2023-01-15T08:30:06;6.97;;;2.00;;
21036;SDS011;10677;50.942;4.028;2023-01-15T08:32:44;9.60;;;1.33;;
21036;SDS011;10677;50.942;4.028;2023-01-15T08:35:10;12.35;;;1.67;;
21036;SDS011;10677;50.942;4.028;2023-01-15T08:37:37;10.20;;;1.70;;
21036;SDS011;10677;50.942;4.028;2023-01-15T08:40:03;13.88;;;2.33;;
21036;SDS011;10677;50.942;4.028;2023-01-15T08:42:29;11.02;;;1.70;;
21036;SDS011;10677;50.942;4.028;2023-01-15T08:44:55;13.55;;;2.20;;
21036;SDS011;10677;50.942;4.028;2023-01-15T08:47:20;13.68;;;1.73;;
21036;SDS011;10677;50.942;4.028;2023-01-15T08:49:46;13.77;;;1.92;;
21036;SDS011;10677;50.942;4.028;2023-01-15T08:52:12;10.02;;;1.85;;
21036;SDS011;10677;50.942;4.028;2023-01-15T08:54:42;13.48;;;2.35;;
21036;SDS011;10677;50.942;4.028;2023-01-15T08:57:08;13.57;;;2.00;;
21036;SDS011;10677;50.942;4.028;2023-01-15T08:59:36;14.27;;;1.83;;
21036;SDS011;10677;50.942;4.028;2023-01-15T09:02:01;8.73;;;1.33;;
21036;SDS011;10677;50.942;4.028;2023-01-15T09:04:27;10.98;;;2.00;;
21036;SDS011;10677;50.942;4.028;2023-01-15T09:06:53;10.35;;;1.67;;
21036;SDS011;10677;50.942;4.028;2023-01-15T09:09:19;8.90;;;1.23;;
21036;SDS011;10677;50.942;4.028;2023-01-15T09:11:45;8.95;;;1.45;;
21036;SDS011;10677;50.942;4.028;2023-01-15T09:14:11;9.43;;;2.33;;
21036;SDS011;10677;50.942;4.028;2023-01-15T09:16:39;6.75;;;1.50;;
21036;SDS011;10677;50.942;4.028;2023-01-15T09:19:05;12.27;;;1.70;;
21036;SDS011;10677;50.942;4.028;2023-01-15T09:21:32;12.25;;;1.50;;
21036;SDS011;10677;50.942;4.028;2023-01-15T09:23:58;11.65;;;2.22;;
21036;SDS011;10677;50.942;4.028;2023-01-15T09:26:31;10.90;;;1.60;;
21036;SDS011;10677;50.942;4.028;2023-01-15T09:28:58;7.85;;;1.10;;
21036;SDS011;10677;50.942;4.028;2023-01-15T09:31:25;9.80;;;1.48;;
21036;SDS011;10677;50.942;4.028;2023-01-15T09:33:51;6.57;;;1.20;;
21036;SDS011;10677;50.942;4.028;2023-01-15T09:36:18;9.15;;;1.58;;
21036;SDS011;10677;50.942;4.028;2023-01-15T09:38:47;9.40;;;1.80;;
21036;SDS011;10677;50.942;4.028;2023-01-15T09:41:13;5.85;;;1.23;;
21036;SDS011;10677;50.942;4.028;2023-01-15T09:44:17;3.20;;;0.80;;
21036;SDS011;10677;50.942;4.028;2023-01-15T09:47:07;5.13;;;1.05;;
21036;SDS011;10677;50.942;4.028;2023-01-15T09:49:49;5.15;;;1.05;;
21036;SDS011;10677;50.942;4.028;2023-01-15T09:55:18;5.85;;;1.10;;
21036;SDS011;10677;50.942;4.028;2023-01-15T09:57:49;9.77;;;1.10;;
21036;SDS011;10677;50.942;4.028;2023-01-15T10:00:20;5.30;;;0.77;;
21036;SDS011;10677;50.942;4.028;2023-01-15T10:02:52;4.10;;;1.13;;
21036;SDS011;10677;50.942;4.028;2023-01-15T10:05:30;4.20;;;0.85;;
21036;SDS011;10677;50.942;4.028;2023-01-15T10:10:52;4.75;;;0.98;;
21036;SDS011;10677;50.942;4.028;2023-01-15T10:15:53;3.20;;;0.93;;
21036;SDS011;10677;50.942;4.028;2023-01-15T10:18:21;8.65;;;1.10;;
21036;SDS011;10677;50.942;4.028;2023-01-15T10:24:04;2.88;;;0.85;;
21036;SDS011;10677;50.942;4.028;2023-01-15T10:26:34;5.47;;;0.90;;
21036;SDS011;10677;50.942;4.028;2023-01-15T10:31:49;4.72;;;0.90;;
21036;SDS011;10677;50.942;4.028;2023-01-15T10:37:12;6.10;;;1.50;;
21036;SDS011;10677;50.942;4.028;2023-01-15T10:47:56;6.88;;;0.85;;
21036;SDS011;10677;50.942;4.028;2023-01-15T10:50:36;5.07;;;1.30;;
21036;SDS011;10677;50.942;4.028;2023-01-15T10:55:54;5.47;;;1.08;;
21036;SDS011;10677;50.942;4.028;2023-01-15T10:58:51;6.18;;;0.90;;
21036;SDS011;10677;50.942;4.028;2023-01-15T11:01:22;12.57;;;1.77;;
21036;SDS011;10677;50.942;4.028;2023-01-15T11:03:51;6.93;;;1.40;;
21036;SDS011;10677;50.942;4.028;2023-01-15T11:06:19;6.20;;;1.35;;
21036;SDS011;10677;50.942;4.028;2023-01-15T11:08:50;5.05;;;1.02;;
21036;SDS011;10677;50.942;4.028;2023-01-15T11:11:37;5.30;;;1.10;;
21036;SDS011;10677;50.942;4.028;2023-01-15T11:14:40;8.25;;;1.25;;
21036;SDS011;10677;50.942;4.028;2023-01-15T11:17:30;4.80;;;0.98;;
21036;SDS011;10677;50.942;4.028;2023-01-15T11:22:56;7.47;;;1.00;;
21036;SDS011;10677;50.942;4.028;2023-01-15T11:25:47;5.13;;;1.20;;
21036;SDS011;10677;50.942;4.028;2023-01-15T11:28:14;7.47;;;1.13;;
21036;SDS011;10677;50.942;4.028;2023-01-15T11:30:41;4.50;;;0.80;;
21036;SDS011;10677;50.942;4.028;2023-01-15T11:36:22;6.07;;;1.00;;
21036;SDS011;10677;50.942;4.028;2023-01-15T11:38:50;8.70;;;0.90;;
21036;SDS011;10677;50.942;4.028;2023-01-15T11:41:20;8.27;;;1.05;;
21036;SDS011;10677;50.942;4.028;2023-01-15T11:44:25;10.73;;;1.95;;
21036;SDS011;10677;50.942;4.028;2023-01-15T11:47:10;6.25;;;1.30;;
21036;SDS011;10677;50.942;4.028;2023-01-15T11:49:57;5.43;;;0.90;;
21036;SDS011;10677;50.942;4.028;2023-01-15T11:52:49;9.55;;;1.52;;
21036;SDS011;10677;50.942;4.028;2023-01-15T11:55:19;13.45;;;1.35;;
21036;SDS011;10677;50.942;4.028;2023-01-15T11:57:48;3.90;;;0.95;;
21036;SDS011;10677;50.942;4.028;2023-01-15T12:00:21;5.32;;;1.65;;
21036;SDS011;10677;50.942;4.028;2023-01-15T12:02:53;6.07;;;1.30;;
21036;SDS011;10677;50.942;4.028;2023-01-15T12:11:11;8.00;;;1.10;;
21036;SDS011;10677;50.942;4.028;2023-01-15T12:14:01;9.55;;;1.63;;
21036;SDS011;10677;50.942;4.028;2023-01-15T12:16:42;5.93;;;1.80;;
21036;SDS011;10677;50.942;4.028;2023-01-15T12:19:27;8.77;;;1.67;;
21036;SDS011;10677;50.942;4.028;2023-01-15T12:25:12;12.00;;;2.80;;
21036;SDS011;10677;50.942;4.028;2023-01-15T12:42:01;9.20;;;1.98;;
21036;SDS011;10677;50.942;4.028;2023-01-15T12:44:53;8.57;;;1.35;;
21036;SDS011;10677;50.942;4.028;2023-01-15T12:52:38;5.88;;;1.30;;
21036;SDS011;10677;50.942;4.028;2023-01-15T12:55:14;9.55;;;1.10;;
21036;SDS011;10677;50.942;4.028;2023-01-15T12:57:50;3.55;;;0.90;;
21036;SDS011;10677;50.942;4.028;2023-01-15T13:13:44;5.38;;;0.95;;
21036;SDS011;10677;50.942;4.028;2023-01-15T13:21:54;4.78;;;0.93;;
21036;SDS011;10677;50.942;4.028;2023-01-15T13:27:44;4.65;;;0.70;;
21036;SDS011;10677;50.942;4.028;2023-01-15T13:33:15;3.70;;;1.05;;
21036;SDS011;10677;50.942;4.028;2023-01-15T13:35:53;4.00;;;0.88;;
21036;SDS011;10677;50.942;4.028;2023-01-15T13:38:27;4.22;;;1.08;;
21036;SDS011;10677;50.942;4.028;2023-01-15T13:41:05;5.90;;;1.42;;
21036;SDS011;10677;50.942;4.028;2023-01-15T13:43:39;6.75;;;1.05;;
21036;SDS011;10677;50.942;4.028;2023-01-15T13:46:07;5.93;;;1.52;;
21036;SDS011;10677;50.942;4.028;2023-01-15T13:51:42;8.13;;;1.13;;
21036;SDS011;10677;50.942;4.028;2023-01-15T13:54:12;3.03;;;1.00;;
21036;SDS011;10677;50.942;4.028;2023-01-15T13:56:42;4.57;;;1.02;;
21036;SDS011;10677;50.942;4.028;2023-01-15T14:01:57;5.68;;;1.30;;
21036;SDS011;10677;50.942;4.028;2023-01-15T14:04:32;5.03;;;1.13;;
21036;SDS011;10677;50.942;4.028;2023-01-15T14:07:01;4.97;;;1.00;;
21036;SDS011;10677;50.942;4.028;2023-01-15T14:09:28;4.32;;;1.10;;
21036;SDS011;10677;50.942;4.028;2023-01-15T14:25:45;5.43;;;1.08;;
21036;SDS011;10677;50.942;4.028;2023-01-15T14:31:31;8.55;;;1.17;;
21036;SDS011;10677;50.942;4.028;2023-01-15T14:36:53;3.80;;;1.10;;
21036;SDS011;10677;50.942;4.028;2023-01-15T14:42:05;7.03;;;1.10;;
21036;SDS011;10677;50.942;4.028;2023-01-15T14:47:49;3.55;;;0.95;;
21036;SDS011;10677;50.942;4.028;2023-01-15T14:50:22;3.53;;;0.93;;
21036;SDS011;10677;50.942;4.028;2023-01-15T14:52:50;5.15;;;0.70;;
21036;SDS011;10677;50.942;4.028;2023-01-15T14:55:18;5.25;;;1.00;;
21036;SDS011;10677;50.942;4.028;2023-01-15T14:57:55;4.30;;;0.88;;
21036;SDS011;10677;50.942;4.028;2023-01-15T15:00:29;5.03;;;1.08;;
21036;SDS011;10677;50.942;4.028;2023-01-15T15:03:01;5.13;;;0.82;;
21036;SDS011;10677;50.942;4.028;2023-01-15T15:05:30;4.35;;;0.75;;
21036;SDS011;10677;50.942;4.028;2023-01-15T15:07:59;6.38;;;1.13;;
21036;SDS011;10677;50.942;4.028;2023-01-15T15:10:26;4.57;;;0.95;;
21036;SDS011;10677;50.942;4.028;2023-01-15T15:21:20;4.32;;;1.30;;
21036;SDS011;10677;50.942;4.028;2023-01-15T15:23:54;3.50;;;0.93;;
21036;SDS011;10677;50.942;4.028;2023-01-15T15:26:30;6.55;;;1.10;;
21036;SDS011;10677;50.942;4.028;2023-01-15T15:29:00;6.22;;;1.13;;
21036;SDS011;10677;50.942;4.028;2023-01-15T15:31:32;4.95;;;1.25;;
21036;SDS011;10677;50.942;4.028;2023-01-15T15:34:00;3.25;;;1.10;;
21036;SDS011;10677;50.942;4.028;2023-01-15T15:36:27;4.78;;;1.02;;
21036;SDS011;10677;50.942;4.028;2023-01-15T15:39:03;3.40;;;0.90;;
21036;SDS011;10677;50.942;4.028;2023-01-15T15:41:40;3.33;;;0.70;;
21036;SDS011;10677;50.942;4.028;2023-01-15T15:47:54;4.60;;;0.90;;
21036;SDS011;10677;50.942;4.028;2023-01-15T15:50:39;4.85;;;0.82;;
21036;SDS011;10677;50.942;4.028;2023-01-15T15:53:05;2.75;;;1.00;;
21036;SDS011;10677;50.942;4.028;2023-01-15T15:55:41;2.78;;;1.35;;
21036;SDS011;10677;50.942;4.028;2023-01-15T15:58:30;3.08;;;1.00;;
21036;SDS011;10677;50.942;4.028;2023-01-15T16:01:00;3.80;;;0.90;;
21036;SDS011;10677;50.942;4.028;2023-01-15T16:03:27;3.25;;;0.80;;
21036;SDS011;10677;50.942;4.028;2023-01-15T16:05:55;4.43;;;1.05;;
21036;SDS011;10677;50.942;4.028;2023-01-15T16:08:22;3.05;;;0.90;;
21036;SDS011;10677;50.942;4.028;2023-01-15T16:10:49;4.55;;;1.10;;
21036;SDS011;10677;50.942;4.028;2023-01-15T16:16:16;4.28;;;1.40;;
21036;SDS011;10677;50.942;4.028;2023-01-15T16:19:01;2.53;;;1.00;;
21036;SDS011;10677;50.942;4.028;2023-01-15T16:21:32;3.67;;;1.20;;
21036;SDS011;10677;50.942;4.028;2023-01-15T16:24:01;4.88;;;1.13;;
21036;SDS011;10677;50.942;4.028;2023-01-15T16:26:36;2.22;;;0.80;;
21036;SDS011;10677;50.942;4.028;2023-01-15T16:29:05;3.03;;;0.90;;
21036;SDS011;10677;50.942;4.028;2023-01-15T16:31:42;3.20;;;1.30;;
21036;SDS011;10677;50.942;4.028;2023-01-15T16:34:10;7.53;;;1.20;;
21036;SDS011;10677;50.942;4.028;2023-01-15T16:36:45;5.60;;;1.25;;
21036;SDS011;10677;50.942;4.028;2023-01-15T16:41:54;4.15;;;1.20;;
21036;SDS011;10677;50.942;4.028;2023-01-15T16:46:53;4.50;;;1.50;;
21036;SDS011;10677;50.942;4.028;2023-01-15T16:51:54;5.90;;;1.50;;
21036;SDS011;10677;50.942;4.028;2023-01-15T16:56:59;3.83;;;1.38;;
21036;SDS011;10677;50.942;4.028;2023-01-15T17:01:52;7.05;;;1.65;;
21036;SDS011;10677;50.942;4.028;2023-01-15T17:04:37;4.43;;;1.50;;
21036;SDS011;10677;50.942;4.028;2023-01-15T17:09:59;6.50;;;1.30;;
21036;SDS011;10677;50.942;4.028;2023-01-15T17:17:41;15.93;;;7.55;;
21036;SDS011;10677;50.942;4.028;2023-01-15T17:20:09;6.45;;;1.80;;
21036;SDS011;10677;50.942;4.028;2023-01-15T17:22:36;13.13;;;3.85;;
21036;SDS011;10677;50.942;4.028;2023-01-15T17:25:19;12.38;;;4.20;;
21036;SDS011;10677;50.942;4.028;2023-01-15T17:27:45;7.10;;;3.95;;
21036;SDS011;10677;50.942;4.028;2023-01-15T17:30:11;12.35;;;4.30;;
21036;SDS011;10677;50.942;4.028;2023-01-15T17:32:38;9.18;;;3.72;;
21036;SDS011;10677;50.942;4.028;2023-01-15T17:35:05;9.18;;;3.90;;
21036;SDS011;10677;50.942;4.028;2023-01-15T17:37:57;10.32;;;4.03;;
21036;SDS011;10677;50.942;4.028;2023-01-15T17:40:23;9.00;;;3.38;;
21036;SDS011;10677;50.942;4.028;2023-01-15T17:42:49;11.60;;;6.20;;
21036;SDS011;10677;50.942;4.028;2023-01-15T17:45:16;11.45;;;5.28;;
21036;SDS011;10677;50.942;4.028;2023-01-15T17:47:45;11.85;;;6.07;;
21036;SDS011;10677;50.942;4.028;2023-01-15T17:50:10;8.75;;;4.60;;
21036;SDS011;10677;50.942;4.028;2023-01-15T17:52:37;10.18;;;4.72;;
21036;SDS011;10677;50.942;4.028;2023-01-15T17:55:03;10.88;;;5.55;;
21036;SDS011;10677;50.942;4.028;2023-01-15T17:57:47;12.15;;;3.45;;
21036;SDS011;10677;50.942;4.028;2023-01-15T18:00:32;8.60;;;3.40;;
21036;SDS011;10677;50.942;4.028;2023-01-15T18:03:20;8.38;;;3.50;;
21036;SDS011;10677;50.942;4.028;2023-01-15T18:06:06;10.88;;;2.67;;
21036;SDS011;10677;50.942;4.028;2023-01-15T18:08:34;6.95;;;2.95;;
21036;SDS011;10677;50.942;4.028;2023-01-15T18:11:00;10.15;;;3.53;;
21036;SDS011;10677;50.942;4.028;2023-01-15T18:13:26;8.57;;;3.08;;
21036;SDS011;10677;50.942;4.028;2023-01-15T18:15:52;8.50;;;2.85;;